Time,TemperatureF,DewpointF,PressureIn,WindDirection,WindDirectionDegrees,WindSpeedMPH,WindSpeedGustMPH,Humidity,HourlyPrecipIn,Conditions,Clouds,dailyrainin,SolarRadiationWatts/m^2,SoftwareType,DateUTC
2013-01-24 00:05:00,-0.2,-14.5,30.00,NNW,336,7.0,7.0,50,0.00,,,0.00,0,Wunderground v.1.15,2013-01-24 05:05:00,
2013-01-24 00:34:00,-0.7,-14.9,29.99,NNW,331,8.0,16.0,50,0.00,,,0.00,0,Wunderground v.1.15,2013-01-24 05:34:00,
2013-01-24 01:05:00,-1.0,-14.4,30.00,NNW,348,6.0,6.0,52,0.00,,,0.00,0,Wunderground v.1.15,2013-01-24 06:05:00,
2013-01-24 01:35:00,-1.2,-14.2,30.00,WNW,297,6.0,18.0,53,0.00,,,0.00,0,Wunderground v.1.15,2013-01-24 06:35:00,
2013-01-24 02:35:00,-1.8,-14.8,29.99,NNW,341,7.0,19.0,53,0.00,,,0.00,0,Wunderground v.1.15,2013-01-24 07:35:00,
2013-01-24 03:05:00,-1.9,-14.2,29.99,North,354,8.0,18.0,55,0.00,,,0.00,0,Wunderground v.1.15,2013-01-24 08:05:00,
2013-01-24 03:34:00,-1.7,-14.3,29.98,NNW,335,8.0,8.0,54,0.00,,,0.00,0,Wunderground v.1.15,2013-01-24 08:34:00,
2013-01-24 04:04:00,-1.7,-14.3,29.98,NW,324,7.0,19.0,54,0.00,,,0.00,0,Wunderground v.1.15,2013-01-24 09:04:00,
2013-01-24 04:35:00,-1.8,-14.4,29.97,North,354,8.0,19.0,54,0.00,,,0.00,0,Wunderground v.1.15,2013-01-24 09:35:00,
2013-01-24 05:05:00,-2.0,-14.2,29.96,NW,319,6.0,16.0,55,0.00,,,0.00,0,Wunderground v.1.15,2013-01-24 10:05:00,
2013-01-24 05:34:00,-2.0,-13.5,29.97,NNW,329,6.0,19.0,57,0.00,,,0.00,0,Wunderground v.1.15,2013-01-24 10:34:00,
2013-01-24 06:05:00,-1.9,-13.4,29.97,NNW,331,7.0,7.0,57,0.00,,,0.00,0,Wunderground v.1.15,2013-01-24 11:05:00,
2013-01-24 06:34:00,-1.7,-12.9,29.98,NNW,340,6.0,16.0,58,0.00,,,0.00,0,Wunderground v.1.15,2013-01-24 11:34:00,
2013-01-24 07:05:00,-1.2,-12.4,29.98,NNW,345,8.0,8.0,58,0.00,,,0.00,5,Wunderground v.1.15,2013-01-24 12:05:00,
2013-01-24 07:35:00,-0.4,-12.0,29.98,NW,326,7.0,18.0,57,0.00,,,0.00,39,Wunderground v.1.15,2013-01-24 12:35:00,
2013-01-24 08:05:00,0.7,-11.7,29.99,NW,326,9.0,9.0,55,0.00,,,0.00,113,Wunderground v.1.15,2013-01-24 13:05:00,
2013-01-24 08:34:00,2.1,-11.5,29.98,NW,324,9.0,9.0,52,0.00,,,0.00,204,Wunderground v.1.15,2013-01-24 13:34:00,
2013-01-24 09:05:00,3.4,-11.5,29.97,NNW,340,8.0,20.0,49,0.00,,,0.00,287,Wunderground v.1.15,2013-01-24 14:05:00,
2013-01-24 09:34:00,5.3,-9.7,29.97,NNW,342,7.0,19.0,49,0.00,,,0.00,343,Wunderground v.1.15,2013-01-24 14:34:00,
2013-01-24 10:35:00,7.7,-10.2,29.96,NNW,328,7.0,23.0,43,0.00,,,0.00,427,Wunderground v.1.15,2013-01-24 15:35:00,
2013-01-24 11:05:00,9.0,-10.5,29.94,NNW,336,10.0,10.0,40,0.00,,,0.00,446,Wunderground v.1.15,2013-01-24 16:05:00,
2013-01-24 11:34:00,9.5,-11.6,29.93,NE,47,11.0,22.0,37,0.00,,,0.00,462,Wunderground v.1.15,2013-01-24 16:34:00,
2013-01-24 12:05:00,11.6,-9.7,29.92,WNW,301,6.0,25.0,37,0.00,,,0.00,241,Wunderground v.1.15,2013-01-24 17:05:00,
2013-01-24 12:34:00,10.8,-12.7,29.91,North,353,12.0,25.0,33,0.00,,,0.00,301,Wunderground v.1.15,2013-01-24 17:34:00,
2013-01-24 13:05:00,11.3,-12.3,29.90,North,355,14.0,24.0,33,0.00,,,0.00,262,Wunderground v.1.15,2013-01-24 18:05:00,
2013-01-24 13:35:00,11.4,-12.2,29.89,NNW,334,12.0,24.0,33,0.00,,,0.00,234,Wunderground v.1.15,2013-01-24 18:35:00,